Edward Cornwallis — CGJV — position and weather

sailwx.info

Track history (hours):
 
Tides and Currents Weather Stations Pressure Air Temp Water Temp Dewpoint Dewpoint Depression Visibility Wind Speed Wind Dir Waves Ship Positions

Edward Cornwallis

Last reported at 2017-Apr-29 22:00 UTC. Time now 2017-Apr-29 23:23 UTC.
Position N 46°48' W 071°12'.

Length 83 m; draft 6 m.

Type: SAR. MMSI: 316020000.

Wind from 050 at 9 knots

Barometer 1012.9 mb
Air temperature 11.2 ° C
Dewpoint -2.9 ° C

Date/timePositionNaut miles runAvg speedWind from/ knotsBaromVisibWave heightAir tempDewpointWater temp
2017-Apr-29 22:00N 46°48' W 071°12'0 0.0 050 / 91012.9 11.2-2.9
2017-Apr-29 21:00N 46°48' W 071°12'0 0.0 130 / 31010.3 14.7-2.6
2017-Apr-29 20:00N 46°48' W 071°12'0 0.0 140 / 41008.7 16.8-1.3
2017-Apr-29 19:00N 46°48' W 071°12'1413.7 270 / 161007.3 17.6 0.7
2017-Apr-29 18:00N 46°42' W 071°30'1212.3 250 / 211007.7 15.5 6.8
2017-Apr-29 17:00N 46°42' W 071°48'4 4.1 250 / 211007.3 14.8 8.3
2017-Apr-29 16:00N 46°42' W 071°54'0 0.0 230 / 161008.7 13.8 8.0
2017-Apr-29 15:00N 46°42' W 071°54'0 0.0 240 / 111009.7 12.5 8.5
2017-Apr-29 14:00N 46°42' W 071°54'4 4.1 050 / 11009.8 10.4 9.3
2017-Apr-29 13:00N 46°42' W 071°48'8 8.2 1010.4 9.3 8.5
2017-Apr-29 12:00N 46°42' W 071°36'1413.7 050 / 41010.4 9.2 7.9
2017-Apr-29 11:00N 46°48' W 071°18'4 4.1 040 / 41010.4 9.1 7.3
2017-Apr-29 10:00N 46°48' W 071°12'0 0.0 230 / 11011.1 10.0 7.5
2017-Apr-29 09:00N 46°48' W 071°12'0 0.0 220 / 21012.2 10.1 6.9
2017-Apr-29 08:00N 46°48' W 071°12'0 0.0 220 / 21012.2 9.6 7.1
2017-Apr-29 07:00N 46°48' W 071°12'0 0.0 220 / 31012.2 9.4 7.2
2017-Apr-29 06:00N 46°48' W 071°12'0 0.0 220 / 21012.7 10.3 7.6
2017-Apr-29 05:00N 46°48' W 071°12'0 0.0 210 / 11012.5 11.0 7.9
2017-Apr-29 04:00N 46°48' W 071°12'0 0.0 040 / 11012.3 8.5 7.7
2017-Apr-29 03:00N 46°48' W 071°12'14 6.9 040 / 11011.8 9.2 7.3
2017-Apr-29 01:00N 46°42' W 071°30'4 4.1 260 / 71011.4 14.4 7.6
2017-Apr-29 00:00N 46°42' W 071°36'0 0.0 260 / 151011.0 15.1 7.2
2017-Apr-28 23:00N 46°42' W 071°36'4 4.1 250 / 91010.7 17.2 7.5
2017-Apr-28 22:00N 46°42' W 071°30'8 8.2 250 / 51011.0 14.910.1
2017-Apr-28 21:00N 46°42' W 071°18'7 7.3 080 / 31011.2 14.0 9.7
2017-Apr-28 20:00N 46°48' W 071°12'0 0.0 050 / 51011.8 11.4 8.3
2017-Apr-28 18:00N 46°48' W 071°12'0 0.0 040 / 41013.3 7.3 5.8
2017-Apr-28 12:00N 46°48' W 071°12'0 0.0 050 / 161012.9 3.5 3.3
2017-Apr-28 06:00N 46°48' W 071°12'0 0.0 050 / 171013.2 3.3 3.2
2017-Apr-28 00:00N 46°48' W 071°12'0 0.0 050 / 271012.7 3.2 3.0
2017-Apr-27 18:00N 46°48' W 071°12'0 0.0 060 / 221015.3 5.1 4.7
2017-Apr-27 12:00N 46°48' W 071°12'0 0.0 060 / 221014.6 4.9 4.8
2017-Apr-27 00:00N 46°48' W 071°12'0 0.0 060 / 131012.4 8.6 8.4
2017-Apr-26 23:00N 46°48' W 071°12'0 0.0 060 / 121012.4 8.4 8.3
2017-Apr-26 22:00N 46°48' W 071°12'0 0.0 050 / 101012.7 8.8 8.7
2017-Apr-26 21:00N 46°48' W 071°12'0 0.0 060 / 111013.7 8.6 8.5
2017-Apr-26 20:00N 46°48' W 071°12'0 0.0 060 / 71014.4 8.8 8.7
2017-Apr-26 19:00N 46°48' W 071°12'7 7.3 050 / 81015.3 8.3 8.2
2017-Apr-26 18:00N 46°42' W 071°18'1817.5 200 / 21014.6 8.2 8.2
2017-Apr-26 17:00N 46°36' W 071°42'0 0.0 060 / 41015.1 9.1 8.8
2017-Apr-26 16:00N 46°36' W 071°42'7 7.3 070 / 101015.1 10.6 8.5
2017-Apr-26 15:00N 46°42' W 071°36'4 4.1 080 / 131015.5 7.6 7.4
2017-Apr-26 14:00N 46°42' W 071°30'0 0.0 080 / 131016.0 7.3 7.1
2017-Apr-26 13:00N 46°42' W 071°30'14 2.0 090 / 111016.5 5.9 5.8
2017-Apr-26 06:00N 46°48' W 071°12'0 0.0 050 / 91021.8 4.1 3.9
2017-Apr-26 00:00N 46°48' W 071°12'0 0.0 050 / 131024.0 4.2-0.2
2017-Apr-25 20:00N 46°48' W 071°12'0 0.0 070 / 171025.4 6.6-4.0
2017-Apr-25 19:00N 46°48' W 071°12'0 0.0 080 / 141026.6 6.8-3.4
2017-Apr-25 18:00N 46°48' W 071°12'0 0.0 070 / 141027.7 6.4-3.6
2017-Apr-25 17:00N 46°48' W 071°12'0 0.0 080 / 141028.3 6.0-6.1
2017-Apr-25 16:00N 46°48' W 071°12'0 0.0 070 / 151029.2 5.3-6.9
2017-Apr-25 15:00N 46°48' W 071°12'0 0.0 060 / 161030.0 4.1-7.9
2017-Apr-25 14:00N 46°48' W 071°12'0 0.0 070 / 161030.3 3.0-7.9
2017-Apr-25 13:00N 46°48' W 071°12'0 0.0 050 / 201030.7 2.3-6.3
2017-Apr-25 12:00N 46°48' W 071°12'0 0.0 060 / 181030.6 2.1-7.2
2017-Apr-25 11:00N 46°48' W 071°12'0 0.0 060 / 171030.1 1.4-7.5
2017-Apr-25 10:00N 46°48' W 071°12'0 0.0 050 / 191029.3 0.9-7.1
2017-Apr-25 09:00N 46°48' W 071°12'0 0.0 050 / 191029.3 1.2-5.4
2017-Apr-25 07:00N 46°48' W 071°12'0 0.0 060 / 141029.0 1.6-4.1
2017-Apr-25 06:00N 46°48' W 071°12'0 0.0 060 / 151029.2 2.0-4.0
2017-Apr-25 05:00N 46°48' W 071°12'0 0.0 060 / 111028.8 2.4-3.3
2017-Apr-25 04:00N 46°48' W 071°12'0 0.0 050 / 111028.3 3.1-1.1
2017-Apr-25 03:00N 46°48' W 071°12'0 0.0 020 / 31028.0 5.0-10.6
2017-Apr-25 02:00N 46°48' W 071°12'0 0.0 350 / 11027.5 5.7-12.5
2017-Apr-25 01:00N 46°48' W 071°12'0 0.0 180 / 21026.8 5.6-12.9
2017-Apr-25 00:00N 46°48' W 071°12'1413.7 270 / 81025.9 6.2-10.9
2017-Apr-24 23:00N 46°42' W 071°30'0 0.0 240 / 71025.2 7.7-8.9
2017-Apr-24 22:00N 46°42' W 071°30'4 4.1 230 / 51025.5 6.9-8.3
2017-Apr-24 21:00N 46°42' W 071°24'0 0.0 240 / 111025.4 6.3-10.0
2017-Apr-24 20:00N 46°42' W 071°24'0 0.0 230 / 131025.5 5.6-9.4
2017-Apr-24 19:00N 46°42' W 071°24'1010.2 260 / 61025.6 4.6-9.3
2017-Apr-24 18:00N 46°48' W 071°12'0 0.0 210 / 81025.9 5.0-10.5
2017-Apr-24 06:00N 46°48' W 071°12'0 0.0 210 / 21019.5 2.5-0.3
2017-Apr-24 00:00N 46°48' W 071°12'0 0.0 160 / 21012.7 10.5 7.7
2017-Apr-23 21:00N 46°48' W 071°12'0 0.0 220 / 61011.2 13.6 3.7
2017-Apr-23 20:00N 46°48' W 071°12'0 0.0 210 / 71012.4 13.1 3.2
2017-Apr-23 19:00N 46°48' W 071°12'0 0.0 220 / 91013.9 12.4 3.0
2017-Apr-23 18:00N 46°48' W 071°12'0 0.0 200 / 81015.1 9.8 3.5
2017-Apr-23 17:00N 46°48' W 071°12'0 0.0 210 / 61015.9 8.8 3.5
2017-Apr-23 16:00N 46°48' W 071°12'1010.2 210 / 121016.7 7.4 0.4
2017-Apr-23 15:00N 46°42' W 071°24'0 0.0 250 / 91017.4 5.5 3.1
2017-Apr-23 14:00N 46°42' W 071°24'7 7.3 250 / 81017.8 4.4 3.2
2017-Apr-23 13:00N 46°48' W 071°18'4 4.1 330 / 21017.9 2.4 2.3
2017-Apr-23 12:00N 46°48' W 071°12'0 0.0 190 / 41017.7 1.7 1.6
2017-Apr-23 11:00N 46°48' W 071°12'0 0.0 270 / 31017.4 2.5 2.4
2017-Apr-23 10:00N 46°48' W 071°12'0 0.0 290 / 21016.7 2.5 2.4
2017-Apr-23 09:00N 46°48' W 071°12'0 0.0 110 / 11016.2 3.6 3.4
2017-Apr-23 08:00N 46°48' W 071°12'0 0.0 210 / 31016.1 3.7 3.6
2017-Apr-23 07:00N 46°48' W 071°12'0 0.0 190 / 41016.1 3.8 3.6
2017-Apr-23 06:00N 46°48' W 071°12'0 0.0 180 / 21016.2 3.8 3.7
2017-Apr-23 05:00N 46°48' W 071°12'0 0.0 120 / 21016.0 3.7 3.5
2017-Apr-23 04:00N 46°48' W 071°12'0 0.0 170 / 11015.9 4.1 3.9
2017-Apr-23 03:00N 46°48' W 071°12'0 0.0 050 / 31015.7 4.7 4.2
2017-Apr-23 02:00N 46°48' W 071°12'0 0.0 050 / 31015.7 4.6 4.4
2017-Apr-23 01:00N 46°48' W 071°12'0 0.0 100 / 21015.5 4.1 4.0
2017-Apr-23 00:00N 46°48' W 071°12'0 0.0 100 / 31014.9 4.1 3.9
2017-Apr-22 23:00N 46°48' W 071°12'0 0.0 100 / 21014.4 4.4 4.3
2017-Apr-22 22:00N 46°48' W 071°12'4 4.1 090 / 31014.2 4.5 4.3
2017-Apr-22 21:00N 46°48' W 071°06'1010.2 090 / 91014.0 4.2 4.1
2017-Apr-22 20:00N 46°54' W 070°54'0 0.0 060 / 121013.9 4.0 3.9
2017-Apr-22 19:00N 46°54' W 070°54'0 0.0 050 / 81013.8 3.6 3.4
2017-Apr-22 18:00N 46°54' W 070°54'0 0.0 050 / 111013.9 3.6 3.4
2017-Apr-22 17:00N 46°54' W 070°54'7 7.3 050 / 101014.0 3.4 3.3
2017-Apr-22 16:00N 46°48' W 071°00'4 4.1 070 / 121014.2 3.7 3.6
2017-Apr-22 15:00N 46°48' W 071°06'4 1.4 060 / 61014.4 3.7 3.5
2017-Apr-22 12:00N 46°48' W 071°12'0 0.0 060 / 61014.4 3.1 2.9
2017-Apr-22 06:00N 46°48' W 071°12'0 0.0 060 / 81014.7 2.7 2.5
2017-Apr-22 00:00N 46°48' W 071°12'0 0.0 070 / 131016.5 2.7 2.5
2017-Apr-21 18:00N 46°48' W 071°12'0 0.0 060 / 161017.3 4.3 3.8
2017-Apr-21 12:00N 46°48' W 071°12'0 0.0 070 / 141021.3 3.5 2.3
2017-Apr-21 06:00N 46°48' W 071°12'0 0.0 070 / 161024.3 2.7 2.2
2017-Apr-21 00:00N 46°48' W 071°12'0 0.0 070 / 121024.5 4.6 2.4
2017-Apr-20 22:00N 46°48' W 071°12'0 0.0 070 / 111024.5 6.0 2.1
2017-Apr-20 21:00N 46°48' W 071°12'0 0.0 060 / 111024.3 6.1 2.7
2017-Apr-20 20:00N 46°48' W 071°12'0 0.0 060 / 71023.9 6.4 3.0
2017-Apr-20 19:00N 46°48' W 071°12'0 0.0 060 / 91023.8 6.0 2.6
2017-Apr-20 18:00N 46°48' W 071°12'0 0.0 070 / 141023.8 5.6 4.1
2017-Apr-20 17:00N 46°48' W 071°12'0 0.0 040 / 81023.4 6.2 4.1
2017-Apr-20 16:00N 46°48' W 071°12'0 0.0 080 / 61023.4 6.2 4.3
2017-Apr-20 15:00N 46°48' W 071°12'0 0.0 070 / 61023.2 6.3 4.7
2017-Apr-20 14:00N 46°48' W 071°12'0 0.0 060 / 71023.3 5.6 4.9
2017-Apr-20 13:00N 46°48' W 071°12'0 0.0 070 / 51023.0 4.9 4.7
2017-Apr-20 12:00N 46°48' W 071°12'0 0.0 050 / 41022.2 4.4 4.2
2017-Apr-20 11:00N 46°48' W 071°12'0 0.0 050 / 41022.2 5.1 4.1
2017-Apr-20 09:00N 46°48' W 071°12'0 0.0 030 / 11019.5 5.1 5.0
2017-Apr-20 08:00N 46°48' W 071°12'0 0.0 040 / 41019.1 4.4 4.3
2017-Apr-20 07:00N 46°48' W 071°12'0 0.0 050 / 71018.8 4.2 4.1
2017-Apr-20 06:00N 46°48' W 071°12'0 0.0 050 / 71018.7 4.2 4.1
2017-Apr-20 05:00N 46°48' W 071°12'0 0.0 040 / 51018.7 4.2 4.1
2017-Apr-20 04:00N 46°48' W 071°12'0 0.0 040 / 51018.9 4.2 4.1
2017-Apr-20 03:00N 46°48' W 071°12'0 0.0 080 / 21018.8 4.5 4.3
2017-Apr-20 02:00N 46°48' W 071°12'0 0.0 090 / 21019.4 4.4 4.3
2017-Apr-20 01:00N 46°48' W 071°12'0 0.0 190 / 11019.7 4.9 4.7
2017-Apr-20 00:00N 46°48' W 071°12'0 0.0 200 / 71019.6 5.7 4.7
2017-Apr-19 23:00N 46°48' W 071°12'0 0.0 220 / 41020.7 6.7 6.5
2017-Apr-19 22:00N 46°48' W 071°12'   230 / 51020.6 7.9 5.7
Track history (hours):
 
Tides and Currents Weather Stations Pressure Air Temp Water Temp Dewpoint Dewpoint Depression Visibility Wind Speed Wind Dir Waves Ship Positions

Edward Cornwallis

Last reported at 2017-Apr-29 22:00 UTC. Time now 2017-Apr-29 23:23 UTC.
Position N 46°48' W 071°12'.

Length 83 m; draft 6 m.

Type: SAR. MMSI: 316020000.

Wind from 050 at 9 knots

Barometer 1012.9 mb
Air temperature 11.2 ° C
Dewpoint -2.9 ° C

Date/timePositionNaut miles runAvg speedWind from/ knotsBaromVisibWave heightAir tempDewpointWater temp
2017-Apr-29 22:00N 46°48' W 071°12'0 0.0 050 / 91012.9 11.2-2.9
2017-Apr-29 21:00N 46°48' W 071°12'0 0.0 130 / 31010.3 14.7-2.6
2017-Apr-29 20:00N 46°48' W 071°12'0 0.0 140 / 41008.7 16.8-1.3
2017-Apr-29 19:00N 46°48' W 071°12'1413.7 270 / 161007.3 17.6 0.7
2017-Apr-29 18:00N 46°42' W 071°30'1212.3 250 / 211007.7 15.5 6.8
2017-Apr-29 17:00N 46°42' W 071°48'4 4.1 250 / 211007.3 14.8 8.3
2017-Apr-29 16:00N 46°42' W 071°54'0 0.0 230 / 161008.7 13.8 8.0
2017-Apr-29 15:00N 46°42' W 071°54'0 0.0 240 / 111009.7 12.5 8.5
2017-Apr-29 14:00N 46°42' W 071°54'4 4.1 050 / 11009.8 10.4 9.3
2017-Apr-29 13:00N 46°42' W 071°48'8 8.2 1010.4 9.3 8.5
2017-Apr-29 12:00N 46°42' W 071°36'1413.7 050 / 41010.4 9.2 7.9
2017-Apr-29 11:00N 46°48' W 071°18'4 4.1 040 / 41010.4 9.1 7.3
2017-Apr-29 10:00N 46°48' W 071°12'0 0.0 230 / 11011.1 10.0 7.5
2017-Apr-29 09:00N 46°48' W 071°12'0 0.0 220 / 21012.2 10.1 6.9
2017-Apr-29 08:00N 46°48' W 071°12'0 0.0 220 / 21012.2 9.6 7.1
2017-Apr-29 07:00N 46°48' W 071°12'0 0.0 220 / 31012.2 9.4 7.2
2017-Apr-29 06:00N 46°48' W 071°12'0 0.0 220 / 21012.7 10.3 7.6
2017-Apr-29 05:00N 46°48' W 071°12'0 0.0 210 / 11012.5 11.0 7.9
2017-Apr-29 04:00N 46°48' W 071°12'0 0.0 040 / 11012.3 8.5 7.7
2017-Apr-29 03:00N 46°48' W 071°12'14 6.9 040 / 11011.8 9.2 7.3
2017-Apr-29 01:00N 46°42' W 071°30'4 4.1 260 / 71011.4 14.4 7.6
2017-Apr-29 00:00N 46°42' W 071°36'0 0.0 260 / 151011.0 15.1 7.2
2017-Apr-28 23:00N 46°42' W 071°36'4 4.1 250 / 91010.7 17.2 7.5
2017-Apr-28 22:00N 46°42' W 071°30'8 8.2 250 / 51011.0 14.910.1
2017-Apr-28 21:00N 46°42' W 071°18'7 7.3 080 / 31011.2 14.0 9.7
2017-Apr-28 20:00N 46°48' W 071°12'0 0.0 050 / 51011.8 11.4 8.3
2017-Apr-28 18:00N 46°48' W 071°12'0 0.0 040 / 41013.3 7.3 5.8
2017-Apr-28 12:00N 46°48' W 071°12'0 0.0 050 / 161012.9 3.5 3.3
2017-Apr-28 06:00N 46°48' W 071°12'0 0.0 050 / 171013.2 3.3 3.2
2017-Apr-28 00:00N 46°48' W 071°12'0 0.0 050 / 271012.7 3.2 3.0
2017-Apr-27 18:00N 46°48' W 071°12'0 0.0 060 / 221015.3 5.1 4.7
2017-Apr-27 12:00N 46°48' W 071°12'0 0.0 060 / 221014.6 4.9 4.8
2017-Apr-27 00:00N 46°48' W 071°12'0 0.0 060 / 131012.4 8.6 8.4
2017-Apr-26 23:00N 46°48' W 071°12'0 0.0 060 / 121012.4 8.4 8.3
2017-Apr-26 22:00N 46°48' W 071°12'0 0.0 050 / 101012.7 8.8 8.7
2017-Apr-26 21:00N 46°48' W 071°12'0 0.0 060 / 111013.7 8.6 8.5
2017-Apr-26 20:00N 46°48' W 071°12'0 0.0 060 / 71014.4 8.8 8.7
2017-Apr-26 19:00N 46°48' W 071°12'7 7.3 050 / 81015.3 8.3 8.2
2017-Apr-26 18:00N 46°42' W 071°18'1817.5 200 / 21014.6 8.2 8.2
2017-Apr-26 17:00N 46°36' W 071°42'0 0.0 060 / 41015.1 9.1 8.8
2017-Apr-26 16:00N 46°36' W 071°42'7 7.3 070 / 101015.1 10.6 8.5
2017-Apr-26 15:00N 46°42' W 071°36'4 4.1 080 / 131015.5 7.6 7.4
2017-Apr-26 14:00N 46°42' W 071°30'0 0.0 080 / 131016.0 7.3 7.1
2017-Apr-26 13:00N 46°42' W 071°30'14 2.0 090 / 111016.5 5.9 5.8
2017-Apr-26 06:00N 46°48' W 071°12'0 0.0 050 / 91021.8 4.1 3.9
2017-Apr-26 00:00N 46°48' W 071°12'0 0.0 050 / 131024.0 4.2-0.2
2017-Apr-25 20:00N 46°48' W 071°12'0 0.0 070 / 171025.4 6.6-4.0
2017-Apr-25 19:00N 46°48' W 071°12'0 0.0 080 / 141026.6 6.8-3.4
2017-Apr-25 18:00N 46°48' W 071°12'0 0.0 070 / 141027.7 6.4-3.6
2017-Apr-25 17:00N 46°48' W 071°12'0 0.0 080 / 141028.3 6.0-6.1
2017-Apr-25 16:00N 46°48' W 071°12'0 0.0 070 / 151029.2 5.3-6.9
2017-Apr-25 15:00N 46°48' W 071°12'0 0.0 060 / 161030.0 4.1-7.9
2017-Apr-25 14:00N 46°48' W 071°12'0 0.0 070 / 161030.3 3.0-7.9
2017-Apr-25 13:00N 46°48' W 071°12'0 0.0 050 / 201030.7 2.3-6.3
2017-Apr-25 12:00N 46°48' W 071°12'0 0.0 060 / 181030.6 2.1-7.2
2017-Apr-25 11:00N 46°48' W 071°12'0 0.0 060 / 171030.1 1.4-7.5
2017-Apr-25 10:00N 46°48' W 071°12'0 0.0 050 / 191029.3 0.9-7.1
2017-Apr-25 09:00N 46°48' W 071°12'0 0.0 050 / 191029.3 1.2-5.4
2017-Apr-25 07:00N 46°48' W 071°12'0 0.0 060 / 141029.0 1.6-4.1
2017-Apr-25 06:00N 46°48' W 071°12'0 0.0 060 / 151029.2 2.0-4.0
2017-Apr-25 05:00N 46°48' W 071°12'0 0.0 060 / 111028.8 2.4-3.3
2017-Apr-25 04:00N 46°48' W 071°12'0 0.0 050 / 111028.3 3.1-1.1
2017-Apr-25 03:00N 46°48' W 071°12'0 0.0 020 / 31028.0 5.0-10.6
2017-Apr-25 02:00N 46°48' W 071°12'0 0.0 350 / 11027.5 5.7-12.5
2017-Apr-25 01:00N 46°48' W 071°12'0 0.0 180 / 21026.8 5.6-12.9
2017-Apr-25 00:00N 46°48' W 071°12'1413.7 270 / 81025.9 6.2-10.9
2017-Apr-24 23:00N 46°42' W 071°30'0 0.0 240 / 71025.2 7.7-8.9
2017-Apr-24 22:00N 46°42' W 071°30'4 4.1 230 / 51025.5 6.9-8.3
2017-Apr-24 21:00N 46°42' W 071°24'0 0.0 240 / 111025.4 6.3-10.0
2017-Apr-24 20:00N 46°42' W 071°24'0 0.0 230 / 131025.5 5.6-9.4
2017-Apr-24 19:00N 46°42' W 071°24'1010.2 260 / 61025.6 4.6-9.3
2017-Apr-24 18:00N 46°48' W 071°12'0 0.0 210 / 81025.9 5.0-10.5
2017-Apr-24 06:00N 46°48' W 071°12'0 0.0 210 / 21019.5 2.5-0.3
2017-Apr-24 00:00N 46°48' W 071°12'0 0.0 160 / 21012.7 10.5 7.7
2017-Apr-23 21:00N 46°48' W 071°12'0 0.0 220 / 61011.2 13.6 3.7
2017-Apr-23 20:00N 46°48' W 071°12'0 0.0 210 / 71012.4 13.1 3.2
2017-Apr-23 19:00N 46°48' W 071°12'0 0.0 220 / 91013.9 12.4 3.0
2017-Apr-23 18:00N 46°48' W 071°12'0 0.0 200 / 81015.1 9.8 3.5
2017-Apr-23 17:00N 46°48' W 071°12'0 0.0 210 / 61015.9 8.8 3.5
2017-Apr-23 16:00N 46°48' W 071°12'1010.2 210 / 121016.7 7.4 0.4
2017-Apr-23 15:00N 46°42' W 071°24'0 0.0 250 / 91017.4 5.5 3.1
2017-Apr-23 14:00N 46°42' W 071°24'7 7.3 250 / 81017.8 4.4 3.2
2017-Apr-23 13:00N 46°48' W 071°18'4 4.1 330 / 21017.9 2.4 2.3
2017-Apr-23 12:00N 46°48' W 071°12'0 0.0 190 / 41017.7 1.7 1.6
2017-Apr-23 11:00N 46°48' W 071°12'0 0.0 270 / 31017.4 2.5 2.4
2017-Apr-23 10:00N 46°48' W 071°12'0 0.0 290 / 21016.7 2.5 2.4
2017-Apr-23 09:00N 46°48' W 071°12'0 0.0 110 / 11016.2 3.6 3.4
2017-Apr-23 08:00N 46°48' W 071°12'0 0.0 210 / 31016.1 3.7 3.6
2017-Apr-23 07:00N 46°48' W 071°12'0 0.0 190 / 41016.1 3.8 3.6
2017-Apr-23 06:00N 46°48' W 071°12'0 0.0 180 / 21016.2 3.8 3.7
2017-Apr-23 05:00N 46°48' W 071°12'0 0.0 120 / 21016.0 3.7 3.5
2017-Apr-23 04:00N 46°48' W 071°12'0 0.0 170 / 11015.9 4.1 3.9
2017-Apr-23 03:00N 46°48' W 071°12'0 0.0 050 / 31015.7 4.7 4.2
2017-Apr-23 02:00N 46°48' W 071°12'0 0.0 050 / 31015.7 4.6 4.4
2017-Apr-23 01:00N 46°48' W 071°12'0 0.0 100 / 21015.5 4.1 4.0
2017-Apr-23 00:00N 46°48' W 071°12'0 0.0 100 / 31014.9 4.1 3.9
2017-Apr-22 23:00N 46°48' W 071°12'0 0.0 100 / 21014.4 4.4 4.3
2017-Apr-22 22:00N 46°48' W 071°12'4 4.1 090 / 31014.2 4.5 4.3
2017-Apr-22 21:00N 46°48' W 071°06'1010.2 090 / 91014.0 4.2 4.1
2017-Apr-22 20:00N 46°54' W 070°54'0 0.0 060 / 121013.9 4.0 3.9
2017-Apr-22 19:00N 46°54' W 070°54'0 0.0 050 / 81013.8 3.6 3.4
2017-Apr-22 18:00N 46°54' W 070°54'0 0.0 050 / 111013.9 3.6 3.4
2017-Apr-22 17:00N 46°54' W 070°54'7 7.3 050 / 101014.0 3.4 3.3
2017-Apr-22 16:00N 46°48' W 071°00'4 4.1 070 / 121014.2 3.7 3.6
2017-Apr-22 15:00N 46°48' W 071°06'4 1.4 060 / 61014.4 3.7 3.5
2017-Apr-22 12:00N 46°48' W 071°12'0 0.0 060 / 61014.4 3.1 2.9
2017-Apr-22 06:00N 46°48' W 071°12'0 0.0 060 / 81014.7 2.7 2.5
2017-Apr-22 00:00N 46°48' W 071°12'0 0.0 070 / 131016.5 2.7 2.5
2017-Apr-21 18:00N 46°48' W 071°12'0 0.0 060 / 161017.3 4.3 3.8
2017-Apr-21 12:00N 46°48' W 071°12'0 0.0 070 / 141021.3 3.5 2.3
2017-Apr-21 06:00N 46°48' W 071°12'0 0.0 070 / 161024.3 2.7 2.2
2017-Apr-21 00:00N 46°48' W 071°12'0 0.0 070 / 121024.5 4.6 2.4
2017-Apr-20 22:00N 46°48' W 071°12'0 0.0 070 / 111024.5 6.0 2.1
2017-Apr-20 21:00N 46°48' W 071°12'0 0.0 060 / 111024.3 6.1 2.7
2017-Apr-20 20:00N 46°48' W 071°12'0 0.0 060 / 71023.9 6.4 3.0
2017-Apr-20 19:00N 46°48' W 071°12'0 0.0 060 / 91023.8 6.0 2.6
2017-Apr-20 18:00N 46°48' W 071°12'0 0.0 070 / 141023.8 5.6 4.1
2017-Apr-20 17:00N 46°48' W 071°12'0 0.0 040 / 81023.4 6.2 4.1
2017-Apr-20 16:00N 46°48' W 071°12'0 0.0 080 / 61023.4 6.2 4.3
2017-Apr-20 15:00N 46°48' W 071°12'0 0.0 070 / 61023.2 6.3 4.7
2017-Apr-20 14:00N 46°48' W 071°12'0 0.0 060 / 71023.3 5.6 4.9
2017-Apr-20 13:00N 46°48' W 071°12'0 0.0 070 / 51023.0 4.9 4.7
2017-Apr-20 12:00N 46°48' W 071°12'0 0.0 050 / 41022.2 4.4 4.2
2017-Apr-20 11:00N 46°48' W 071°12'0 0.0 050 / 41022.2 5.1 4.1
2017-Apr-20 09:00N 46°48' W 071°12'0 0.0 030 / 11019.5 5.1 5.0
2017-Apr-20 08:00N 46°48' W 071°12'0 0.0 040 / 41019.1 4.4 4.3
2017-Apr-20 07:00N 46°48' W 071°12'0 0.0 050 / 71018.8 4.2 4.1
2017-Apr-20 06:00N 46°48' W 071°12'0 0.0 050 / 71018.7 4.2 4.1
2017-Apr-20 05:00N 46°48' W 071°12'0 0.0 040 / 51018.7 4.2 4.1
2017-Apr-20 04:00N 46°48' W 071°12'0 0.0 040 / 51018.9 4.2 4.1
2017-Apr-20 03:00N 46°48' W 071°12'0 0.0 080 / 21018.8 4.5 4.3
2017-Apr-20 02:00N 46°48' W 071°12'0 0.0 090 / 21019.4 4.4 4.3
2017-Apr-20 01:00N 46°48' W 071°12'0 0.0 190 / 11019.7 4.9 4.7
2017-Apr-20 00:00N 46°48' W 071°12'0 0.0 200 / 71019.6 5.7 4.7
2017-Apr-19 23:00N 46°48' W 071°12'0 0.0 220 / 41020.7 6.7 6.5
2017-Apr-19 22:00N 46°48' W 071°12'   230 / 51020.6 7.9 5.7

Dump ship's entire track history